Time;durP1;ratioP1;P1;durP2;ratioP2;P2;SDS_P1;SDS_P2;PMS_P1;PMS_P2;Temp;Humidity;BMP_temperature;BMP_pressure;BME280_temperature;BME280_humidity;BME280_pressure;Samples;Min_cycle;Max_cycle;Signal;HPM_P1;HPM_P2
2022/01/29 00:03:31;;;;;;;;;;;;;;;;;;;;;
2022/01/29 00:17:11;;;;;;;63.05;51.75;;;17.90;53.10;;;;;;4748423;29;91391;-75
2022/01/29 00:33:46;;;;;;;64.65;51.65;;;17.80;53.50;;;;;;4794800;28;91657;-75
2022/01/29 00:43:44;;;;;;;62.10;51.08;;;17.60;53.40;;;;;;4832653;28;89842;-75
2022/01/29 00:47:07;;;;;;;62.45;51.30;;;17.60;53.60;;;;;;4822680;28;90790;-75
2022/01/29 00:57:18;;;;;;;62.45;51.38;;;17.50;53.70;;;;;;4750518;29;91903;-75
2022/01/29 01:13:45;;;;;;;62.13;50.58;;;17.40;54.10;;;;;;4752054;29;92805;-75
2022/01/29 01:20:16;;;;;;;61.35;50.28;;;17.30;54.10;;;;;;4761517;29;91016;-75
2022/01/29 01:23:40;;;;;;;62.78;50.83;;;17.30;54.10;;;;;;4812610;28;90859;-76
2022/01/29 01:30:50;;;;;;;62.30;50.90;;;17.20;54.20;;;;;;4786077;28;91892;-75
2022/01/29 01:37:00;;;;;;;62.10;51.22;;;17.30;54.20;;;;;;4824437;28;90694;-75
2022/01/29 01:54:14;;;;;;;60.28;50.28;;;17.10;54.40;;;;;;4754228;28;91492;-75
2022/01/29 02:01:13;;;;;;;60.58;50.53;;;17.10;54.40;;;;;;4789035;28;93100;-76
2022/01/29 02:50:16;;;;;;;59.17;50.03;;;16.80;54.80;;;;;;4703141;29;92761;-75
2022/01/29 03:14:43;;;;;;;58.08;49.45;;;16.70;55.20;;;;;;4738172;29;90740;-75
2022/01/29 03:18:01;;;;;;;;;;;;;;;;;;;;;
2022/01/29 03:31:51;;;;;;;58.15;49.22;;;16.60;55.30;;;;;;4773299;28;90710;-75
2022/01/29 03:42:14;;;;;;;59.33;49.55;;;16.60;55.40;;;;;;4769277;29;92135;-75
2022/01/29 04:09:49;;;;;;;57.13;48.53;;;16.50;55.70;;;;;;4723977;29;91166;-75
2022/01/29 04:23:14;;;;;;;56.10;48.13;;;16.50;55.70;;;;;;4681528;29;91526;-75
2022/01/29 04:33:33;;;;;;;;;;;;;;;;;;;;;
2022/01/29 04:36:25;;;;;;;56.47;48.13;;;16.50;55.80;;;;;;4693204;29;108099;-75
2022/01/29 04:43:12;;;;;;;56.03;47.97;;;16.40;55.80;;;;;;4707221;29;95333;-75
2022/01/29 04:46:48;;;;;;;;;;;;;;;;;;;;;
2022/01/29 04:56:54;;;;;;;55.75;48.00;;;16.40;55.90;;;;;;4676045;29;91272;-75
2022/01/29 05:03:25;;;;;;;55.88;47.78;;;16.40;55.90;;;;;;4692619;29;91168;-75
2022/01/29 05:06:36;;;;;;;56.33;47.80;;;16.30;55.90;;;;;;4729103;29;94481;-75
2022/01/29 05:33:55;;;;;;;56.22;47.10;;;16.50;56.60;;;;;;4834654;28;92109;-75
2022/01/29 05:43:46;;;;;;;;;;;17.30;56.00;;;;;;4784619;28;90554;-75
2022/01/29 05:49:42;;;;;;;56.85;47.85;;;17.90;55.00;;;;;;4831794;28;91304;-75
2022/01/29 06:13:44;;;;;;;57.95;47.97;;;19.70;51.00;;;;;;4771314;29;91061;-75
2022/01/29 06:28:14;;;;;;;;;;;;;;;;;;;;;
2022/01/29 06:38:14;;;;;;;58.05;48.05;;;20.40;48.80;;;;;;4828120;28;90112;-75
2022/01/29 06:59:04;;;;;;;;;;;;;;;;;;;;;
2022/01/29 07:21:16;;;;;;;57.10;47.65;;;19.80;49.00;;;;;;5356215;22;20470560;-76
2022/01/29 07:24:17;;;;;;;57.30;47.50;;;19.70;49.00;;;;;;6221241;22;85335;-76
2022/01/29 07:27:49;;;;;;;57.42;47.72;;;19.60;49.10;;;;;;6227907;22;85494;-75
2022/01/29 07:31:12;;;;;;;56.80;47.55;;;19.60;49.20;;;;;;6076507;23;85901;-76
2022/01/29 07:34:30;;;;;;;;;;;;;;;;;;;;;
2022/01/29 07:49:02;;;;;;;;;;;;;;;;;;;;;
2022/01/29 07:55:45;;;;;;;56.85;47.33;;;19.20;50.00;;;;;;5982098;23;86010;-75
2022/01/29 07:59:02;;;;;;;57.60;47.65;;;19.20;50.10;;;;;;5890664;23;85672;-76
2022/01/29 08:01:57;;;;;;;59.58;47.47;;;19.20;50.20;;;;;;5782077;24;85236;-76
2022/01/29 08:05:15;;;;;;;;;;;;;;;;;;;;;
2022/01/29 08:07:41;;;;;;;63.13;47.75;;;19.10;50.60;;;;;;5942461;23;115030;-73
2022/01/29 08:10:09;;;;;;;58.95;47.58;;;19.00;50.60;;;;;;6083805;23;85151;-71
2022/01/29 08:12:35;;;;;;;58.45;47.75;;;19.00;50.70;;;;;;6136832;22;84872;-73
2022/01/29 08:15:02;;;;;;;57.83;47.53;;;18.90;51.00;;;;;;6168052;22;85567;-72
2022/01/29 08:17:28;;;;;;;58.85;47.42;;;19.00;51.20;;;;;;6178478;22;85265;-72
2022/01/29 08:19:54;;;;;;;58.88;47.72;;;18.90;51.20;;;;;;6155044;22;86557;-72
2022/01/29 08:22:19;;;;;;;57.83;47.47;;;18.90;51.40;;;;;;6187273;22;85696;-72
2022/01/29 08:24:45;;;;;;;58.67;47.95;;;18.90;52.00;;;;;;6183607;22;85591;-72
2022/01/29 08:27:11;;;;;;;58.65;47.65;;;18.90;51.50;;;;;;6167634;22;86159;-72
2022/01/29 08:29:37;;;;;;;57.50;47.65;;;18.90;51.60;;;;;;6192917;22;85425;-73
2022/01/29 08:32:04;;;;;;;58.70;47.75;;;18.90;51.60;;;;;;6178219;22;85506;-72
2022/01/29 08:34:29;;;;;;;57.88;47.65;;;18.90;51.70;;;;;;6193525;22;85431;-72
2022/01/29 08:37:00;;;;;;;58.90;47.85;;;18.90;51.60;;;;;;6190394;22;85731;-73
2022/01/29 08:39:26;;;;;;;59.67;47.85;;;19.10;51.80;;;;;;6197436;22;85431;-72
2022/01/29 08:41:52;;;;;;;61.13;48.15;;;19.10;51.60;;;;;;6168965;22;85231;-73
2022/01/29 08:44:17;;;;;;;57.83;47.85;;;19.10;51.50;;;;;;6184208;22;86262;-73
2022/01/29 08:46:43;;;;;;;59.20;47.65;;;19.20;51.40;;;;;;6180634;22;85743;-72
2022/01/29 08:49:09;;;;;;;57.92;47.78;;;19.20;51.40;;;;;;6192569;22;85417;-73
2022/01/29 08:51:37;;;;;;;61.20;48.05;;;19.20;51.30;;;;;;6153300;22;85123;-74
2022/01/29 08:54:04;;;;;;;63.97;48.13;;;19.20;51.30;;;;;;6186592;22;85302;-74
2022/01/29 08:56:30;;;;;;;57.95;47.90;;;19.20;51.50;;;;;;6190847;22;86669;-72
2022/01/29 08:58:56;;;;;;;66.97;47.85;;;19.20;51.70;;;;;;6187070;22;85859;-73
2022/01/29 09:01:24;;;;;;;62.08;48.13;;;19.20;51.80;;;;;;6191786;22;85725;-73
2022/01/29 09:03:50;;;;;;;61.40;47.92;;;19.30;52.10;;;;;;6188673;22;85978;-73
2022/01/29 09:06:16;;;;;;;65.03;48.03;;;19.20;52.10;;;;;;6182335;22;85715;-73
2022/01/29 09:08:46;;;;;;;62.20;48.17;;;19.20;52.10;;;;;;6196257;22;85486;-73
2022/01/29 09:11:13;;;;;;;59.70;47.85;;;19.20;52.20;;;;;;6165780;22;85623;-74
2022/01/29 09:13:39;;;;;;;59.40;47.78;;;19.20;52.30;;;;;;6180211;22;85341;-74
2022/01/29 09:16:07;;;;;;;58.95;47.95;;;19.30;52.30;;;;;;6200121;22;85557;-74
2022/01/29 09:18:33;;;;;;;63.17;47.88;;;19.30;52.20;;;;;;6165326;22;85499;-75
2022/01/29 09:20:59;;;;;;;59.83;47.95;;;19.30;52.00;;;;;;6193142;22;85388;-74
2022/01/29 09:23:25;;;;;;;60.67;47.83;;;19.30;52.00;;;;;;6162606;22;85832;-74
2022/01/29 09:25:51;;;;;;;59.25;48.15;;;19.40;51.90;;;;;;6181189;22;86134;-74
2022/01/29 09:28:17;;;;;;;59.30;47.80;;;19.40;51.80;;;;;;6182102;22;88071;-74
2022/01/29 09:30:43;;;;;;;59.17;47.80;;;19.40;51.70;;;;;;6191909;22;85198;-74
2022/01/29 09:33:10;;;;;;;59.28;47.97;;;19.40;51.70;;;;;;6181216;22;85546;-74
2022/01/29 09:35:38;;;;;;;59.50;48.35;;;19.50;51.70;;;;;;6189788;22;87260;-74
2022/01/29 09:38:05;;;;;;;59.97;48.15;;;19.50;51.60;;;;;;6189251;22;85334;-75
2022/01/29 09:40:33;;;;;;;59.50;48.00;;;19.50;51.60;;;;;;6183397;22;85370;-75
2022/01/29 09:43:01;;;;;;;59.70;48.00;;;19.50;51.50;;;;;;6177270;22;84969;-75
2022/01/29 09:45:27;;;;;;;60.33;47.95;;;19.50;51.60;;;;;;6186640;22;85505;-75
2022/01/29 09:48:03;;;;;;;59.83;48.00;;;19.60;51.70;;;;;;6190829;22;85786;-75
2022/01/29 09:50:31;;;;;;;58.90;48.00;;;19.60;51.70;;;;;;6156043;22;85281;-75
2022/01/29 09:52:58;;;;;;;60.67;48.28;;;19.60;51.70;;;;;;6188457;22;84982;-75
2022/01/29 09:55:29;;;;;;;59.67;48.08;;;19.60;51.60;;;;;;6191635;22;87213;-75
2022/01/29 09:57:56;;;;;;;65.78;48.45;;;19.60;51.70;;;;;;6182944;22;85488;-74
2022/01/29 10:00:27;;;;;;;59.75;48.10;;;19.60;51.60;;;;;;6191076;22;85200;-75
2022/01/29 10:03:11;;;;;;;59.58;48.05;;;19.60;51.60;;;;;;6153044;22;84996;-74
2022/01/29 10:22:47;;;;;;;;;;;;;;;;;;;;;
2022/01/29 10:25:52;;;;;;;61.20;48.43;;;19.70;51.70;;;;;;5793398;23;106037;-74
2022/01/29 10:28:40;;;;;;;64.15;48.50;;;19.70;51.60;;;;;;5886992;23;85056;-73
2022/01/29 10:31:10;;;;;;;60.28;48.35;;;19.80;51.60;;;;;;6045197;23;85065;-73
2022/01/29 10:33:42;;;;;;;67.95;48.53;;;19.90;51.60;;;;;;6096491;23;85108;-74
2022/01/29 10:36:25;;;;;;;62.78;48.63;;;19.90;51.40;;;;;;6071117;23;85279;-73
2022/01/29 10:39:12;;;;;;;61.35;48.63;;;19.90;51.50;;;;;;6097179;23;85019;-73
2022/01/29 10:41:38;;;;;;;61.45;48.42;;;20.00;51.40;;;;;;6109681;23;85644;-73
2022/01/29 10:44:10;;;;;;;62.55;48.55;;;20.00;51.20;;;;;;6101947;23;85412;-73
2022/01/29 10:53:49;;;;;;;64.00;48.88;;;20.10;51.00;;;;;;6043088;23;85595;-74
2022/01/29 10:57:03;;;;;;;;;;;;;;;;;;;;;
2022/01/29 10:59:32;;;;;;;67.97;50.00;;;20.20;51.50;;;;;;6036292;23;106596;-74
2022/01/29 11:02:06;;;;;;;70.95;50.08;;;20.10;51.80;;;;;;6040942;23;85141;-76
2022/01/29 11:04:51;;;;;;;66.90;50.10;;;20.20;51.90;;;;;;6090377;22;85989;-75
2022/01/29 11:07:57;;;;;;;72.85;49.90;;;20.10;52.00;;;;;;6137498;22;85684;-76
2022/01/29 11:10:28;;;;;;;72.03;50.15;;;20.10;52.00;;;;;;6102423;22;85353;-73
2022/01/29 11:13:11;;;;;;;69.03;50.17;;;20.10;52.00;;;;;;6158083;22;85573;-76
2022/01/29 11:15:37;;;;;;;70.63;50.17;;;20.10;52.10;;;;;;6123799;22;86974;-74
2022/01/29 11:18:10;;;;;;;81.93;51.42;;;20.10;52.20;;;;;;6131799;22;85865;-74
2022/01/29 11:20:58;;;;;;;83.20;52.05;;;20.00;52.60;;;;;;1177948;22;10099819;-76
2022/01/29 11:23:32;;;;;;;82.10;51.75;;;20.00;52.90;;;;;;5622669;23;10085594;-74
2022/01/29 11:26:20;;;;;;;73.80;51.25;;;20.00;52.80;;;;;;6056057;23;85387;-75
2022/01/29 11:29:27;;;;;;;75.70;50.88;;;20.00;52.80;;;;;;6056776;23;85492;-72
2022/01/29 11:32:21;;;;;;;72.22;50.78;;;19.90;52.90;;;;;;6057191;23;85929;-72
2022/01/29 11:35:44;;;;;;;73.32;51.08;;;19.90;53.20;;;;;;6057948;23;86226;-76
2022/01/29 11:38:11;;;;;;;74.57;50.95;;;19.90;53.30;;;;;;6023304;23;85066;-77
2022/01/29 11:40:54;;;;;;;69.60;50.38;;;20.00;53.30;;;;;;6052712;23;85300;-76
2022/01/29 11:43:22;;;;;;;71.47;50.17;;;20.10;53.30;;;;;;6057854;23;85452;-76
2022/01/29 11:46:31;;;;;;;68.10;50.38;;;20.20;53.20;;;;;;6061577;23;84792;-76
2022/01/29 11:48:58;;;;;;;66.45;50.17;;;20.20;52.90;;;;;;6060859;23;85377;-76
2022/01/29 11:51:52;;;;;;;70.07;50.47;;;20.40;52.70;;;;;;6051225;23;84959;-75
2022/01/29 11:54:22;;;;;;;70.32;50.50;;;20.50;53.50;;;;;;6055018;23;85179;-76
2022/01/29 11:56:49;;;;;;;65.50;49.67;;;20.50;53.70;;;;;;6054992;23;85565;-75
2022/01/29 11:59:20;;;;;;;69.68;50.58;;;20.60;53.30;;;;;;6059382;23;85856;-76
2022/01/29 12:02:02;;;;;;;67.10;50.30;;;20.70;52.80;;;;;;6056268;23;85256;-74
2022/01/29 12:04:47;;;;;;;67.43;49.83;;;20.70;52.60;;;;;;6053469;23;87064;-75
2022/01/29 12:07:20;;;;;;;66.15;50.10;;;20.80;52.90;;;;;;6054512;23;84947;-74
2022/01/29 12:09:53;;;;;;;68.50;49.85;;;20.80;53.00;;;;;;6058110;23;85487;-75
2022/01/29 12:12:27;;;;;;;69.93;49.97;;;20.80;52.90;;;;;;6053357;23;85519;-74
2022/01/29 12:15:11;;;;;;;68.70;50.22;;;20.90;52.80;;;;;;6022613;23;86398;-75
2022/01/29 12:17:48;;;;;;;70.68;50.25;;;21.00;53.20;;;;;;6029127;23;85766;-75
2022/01/29 12:20:30;;;;;;;67.93;50.13;;;21.00;53.30;;;;;;6021983;23;87073;-74
2022/01/29 12:22:59;;;;;;;;;;;21.00;53.20;;;;;;6033908;23;85364;-73
2022/01/29 12:25:27;;;;;;;69.30;50.00;;;21.00;53.60;;;;;;6034767;23;85764;-73
2022/01/29 12:28:01;;;;;;;71.70;50.35;;;21.10;53.90;;;;;;6027150;23;85479;-73
2022/01/29 12:30:35;;;;;;;73.55;50.22;;;21.10;53.90;;;;;;6021900;23;88315;-73
2022/01/29 12:33:04;;;;;;;66.78;50.15;;;21.10;53.80;;;;;;6022161;23;84967;-73
2022/01/29 12:35:43;;;;;;;70.25;50.25;;;21.10;53.60;;;;;;6024317;23;86262;-73
2022/01/29 12:38:23;;;;;;;71.78;50.22;;;21.10;53.20;;;;;;6028244;23;84964;-74
2022/01/29 12:40:58;;;;;;;67.05;50.15;;;21.10;52.80;;;;;;6027213;23;85602;-74
2022/01/29 12:43:24;;;;;;;70.90;50.13;;;21.10;52.50;;;;;;6032174;23;85416;-74
2022/01/29 12:45:51;;;;;;;72.40;50.00;;;21.00;52.10;;;;;;6032203;23;84798;-74
2022/01/29 12:48:18;;;;;;;66.82;50.05;;;21.00;52.00;;;;;;6028979;23;85678;-74
2022/01/29 12:50:44;;;;;;;65.95;50.33;;;21.00;51.90;;;;;;6027188;23;86321;-74
2022/01/29 12:53:20;;;;;;;65.35;50.00;;;21.00;51.70;;;;;;6023211;23;85593;-74
2022/01/29 12:55:59;;;;;;;68.13;50.35;;;21.00;51.70;;;;;;6031178;23;85748;-74
2022/01/29 12:58:35;;;;;;;68.85;50.20;;;20.90;51.60;;;;;;6027971;23;88184;-74
2022/01/29 13:01:06;;;;;;;66.80;49.97;;;20.80;51.60;;;;;;6026460;23;85357;-74
2022/01/29 13:03:33;;;;;;;67.57;50.03;;;20.80;51.60;;;;;;6029798;23;85338;-74
2022/01/29 13:06:09;;;;;;;67.95;49.60;;;20.80;51.60;;;;;;6031946;23;85728;-74
2022/01/29 13:08:36;;;;;;;65.47;50.15;;;20.80;51.60;;;;;;6025769;23;85369;-74
2022/01/29 13:11:02;;;;;;;69.50;50.20;;;20.80;51.70;;;;;;6026113;23;87097;-74
2022/01/29 13:13:32;;;;;;;66.85;49.65;;;20.80;51.60;;;;;;6034954;23;84894;-74
2022/01/29 13:15:59;;;;;;;67.82;50.13;;;20.70;51.60;;;;;;6058933;23;85164;-75
2022/01/29 13:18:26;;;;;;;67.00;49.90;;;20.70;51.70;;;;;;6061493;23;87185;-74
2022/01/29 13:20:57;;;;;;;67.53;49.97;;;20.70;51.80;;;;;;6058131;23;85762;-75
2022/01/29 13:23:27;;;;;;;66.72;49.38;;;20.60;51.80;;;;;;6053209;23;85616;-75
2022/01/29 13:25:53;;;;;;;66.83;49.93;;;20.60;51.80;;;;;;6059458;23;85619;-74
2022/01/29 13:28:23;;;;;;;69.30;50.17;;;20.60;51.80;;;;;;6059809;23;86255;-75
2022/01/29 13:31:02;;;;;;;69.10;50.03;;;20.60;51.90;;;;;;6058364;23;87163;-74
2022/01/29 13:33:36;;;;;;;67.50;50.25;;;20.50;52.50;;;;;;6061605;23;85267;-74
2022/01/29 13:36:05;;;;;;;66.63;49.95;;;20.50;52.50;;;;;;6060995;23;85486;-74
2022/01/29 13:38:39;;;;;;;67.85;49.95;;;20.50;52.00;;;;;;6060725;23;85238;-75
2022/01/29 13:41:05;;;;;;;67.72;50.13;;;20.50;52.10;;;;;;6057592;23;86159;-74
2022/01/29 13:43:41;;;;;;;66.90;50.28;;;20.50;52.10;;;;;;6059044;23;85275;-74
2022/01/29 13:46:08;;;;;;;67.72;50.72;;;20.50;52.00;;;;;;6057542;23;85524;-74
2022/01/29 13:48:53;;;;;;;74.88;51.33;;;20.50;52.00;;;;;;6060752;23;86032;-74
2022/01/29 13:51:42;;;;;;;74.90;50.92;;;20.50;51.90;;;;;;6058392;23;85091;-74
2022/01/29 13:54:10;;;;;;;72.25;51.47;;;20.60;52.10;;;;;;6016653;23;91376;-75
2022/01/29 13:56:39;;;;;;;74.63;51.65;;;20.50;52.00;;;;;;6019350;23;86275;-75
2022/01/29 13:59:19;;;;;;;73.40;49.25;;;20.60;52.20;;;;;;3238046;23;10089725;-74
2022/01/29 14:01:53;;;;;;;83.00;51.35;;;20.60;52.10;;;;;;3947615;23;10087006;-73
2022/01/29 14:04:29;;;;;;;72.90;51.72;;;20.60;52.10;;;;;;6052659;23;85653;-74
2022/01/29 14:06:58;;;;;;;68.80;51.42;;;20.60;52.00;;;;;;6063318;23;85914;-73
2022/01/29 14:09:58;;;;;;;78.93;51.83;;;20.60;52.00;;;;;;6059280;23;85204;-73
2022/01/29 14:12:44;;;;;;;74.93;51.65;;;20.60;52.00;;;;;;6063880;23;84951;-73
2022/01/29 14:15:13;;;;;;;73.60;51.67;;;20.60;52.00;;;;;;6063381;23;86703;-73
2022/01/29 14:17:42;;;;;;;71.00;51.90;;;20.60;52.10;;;;;;6062361;23;85026;-74
2022/01/29 14:20:10;;;;;;;75.68;52.40;;;20.50;52.10;;;;;;6057973;23;86261;-74
2022/01/29 14:22:37;;;;;;;70.30;51.50;;;20.50;52.10;;;;;;6055083;23;84946;-74
2022/01/29 14:25:07;;;;;;;70.90;51.78;;;20.50;52.10;;;;;;6057493;23;85341;-73
2022/01/29 14:27:34;;;;;;;68.65;51.90;;;20.40;52.00;;;;;;6061335;23;85737;-74
2022/01/29 14:30:00;;;;;;;72.45;52.38;;;20.40;52.10;;;;;;6057629;23;85817;-74
2022/01/29 14:32:28;;;;;;;67.18;51.22;;;20.40;52.20;;;;;;6056621;23;85808;-73
2022/01/29 14:34:57;;;;;;;74.95;51.30;;;20.40;52.20;;;;;;6062093;23;85679;-74
2022/01/29 14:37:23;;;;;;;68.10;51.15;;;20.30;52.10;;;;;;6062523;23;86635;-73
2022/01/29 14:39:50;;;;;;;68.68;50.67;;;20.30;52.20;;;;;;6061300;23;85012;-73
2022/01/29 14:42:25;;;;;;;70.55;51.17;;;20.40;52.20;;;;;;6064141;23;85118;-73
2022/01/29 14:44:59;;;;;;;69.50;50.78;;;20.40;52.10;;;;;;6045743;23;84610;-73
2022/01/29 14:47:25;;;;;;;67.95;50.92;;;20.50;52.10;;;;;;6059920;23;85665;-74
2022/01/29 14:49:51;;;;;;;64.63;50.33;;;20.50;52.00;;;;;;6061335;23;85528;-73
2022/01/29 14:52:17;;;;;;;65.47;50.60;;;20.50;51.80;;;;;;6053032;23;85335;-74
2022/01/29 14:54:44;;;;;;;66.05;50.42;;;20.60;51.80;;;;;;6055846;23;86075;-74
2022/01/29 14:57:10;;;;;;;66.45;50.22;;;20.60;51.70;;;;;;6058184;23;85752;-74
2022/01/29 14:59:36;;;;;;;66.75;50.58;;;20.60;51.60;;;;;;6055686;23;85428;-74
2022/01/29 15:02:02;;;;;;;66.38;50.10;;;20.70;51.50;;;;;;6054193;23;85592;-71
2022/01/29 15:04:29;;;;;;;66.03;50.60;;;20.70;51.40;;;;;;6053641;23;85506;-74
2022/01/29 15:06:56;;;;;;;65.13;50.35;;;20.70;51.40;;;;;;6057697;23;84956;-74
2022/01/29 15:09:22;;;;;;;66.22;50.05;;;20.70;52.00;;;;;;6055406;23;85257;-73
2022/01/29 15:11:49;;;;;;;66.93;50.55;;;20.70;51.30;;;;;;6057819;23;84837;-74
2022/01/29 15:14:15;;;;;;;66.55;50.00;;;20.70;51.70;;;;;;6047548;23;85395;-75
2022/01/29 15:16:41;;;;;;;68.88;50.33;;;20.70;52.10;;;;;;6037813;23;87130;-74
2022/01/29 15:19:07;;;;;;;68.72;50.00;;;20.70;52.30;;;;;;6035746;23;85803;-74
2022/01/29 15:21:35;;;;;;;67.80;50.28;;;20.70;52.60;;;;;;6043294;23;85635;-74
2022/01/29 15:24:00;;;;;;;72.95;50.60;;;20.60;52.60;;;;;;6051427;23;87080;-75
2022/01/29 15:26:26;;;;;;;67.43;50.50;;;20.60;53.30;;;;;;6053507;23;85944;-74
2022/01/29 15:28:52;;;;;;;68.07;50.45;;;20.60;53.60;;;;;;6057603;23;86852;-74
2022/01/29 15:31:18;;;;;;;70.20;50.65;;;20.60;53.80;;;;;;6055708;23;85375;-74
2022/01/29 15:33:44;;;;;;;70.25;50.80;;;20.60;54.10;;;;;;6055374;23;85075;-75
2022/01/29 15:36:10;;;;;;;78.65;50.28;;;20.60;54.30;;;;;;6058704;23;84915;-74
2022/01/29 15:38:38;;;;;;;71.30;50.92;;;20.60;54.60;;;;;;6054221;23;85379;-75
2022/01/29 15:41:06;;;;;;;72.38;50.80;;;20.60;54.60;;;;;;6053417;23;85736;-74
2022/01/29 15:43:33;;;;;;;66.82;50.58;;;20.50;55.10;;;;;;6056127;23;85020;-75
2022/01/29 15:45:59;;;;;;;72.60;51.17;;;20.50;55.80;;;;;;6044397;23;85754;-75
2022/01/29 15:48:26;;;;;;;72.55;51.10;;;20.40;55.50;;;;;;6060745;23;85523;-76
2022/01/29 15:50:55;;;;;;;70.80;50.80;;;20.40;55.90;;;;;;6059931;23;85051;-76
2022/01/29 15:53:25;;;;;;;75.22;50.72;;;20.40;56.30;;;;;;6054696;23;85801;-76
2022/01/29 15:55:51;;;;;;;74.90;50.78;;;20.40;56.50;;;;;;6058624;23;85700;-75
2022/01/29 15:58:20;;;;;;;68.47;50.97;;;20.30;56.70;;;;;;6062947;23;85161;-76
2022/01/29 16:00:49;;;;;;;74.07;50.20;;;20.30;56.80;;;;;;6059579;23;85005;-75
2022/01/29 16:03:16;;;;;;;71.45;50.50;;;20.30;56.80;;;;;;6062602;23;85092;-76
2022/01/29 16:05:44;;;;;;;71.68;50.17;;;20.20;56.70;;;;;;6057939;23;86773;-75
2022/01/29 16:08:10;;;;;;;66.85;50.53;;;20.20;56.90;;;;;;6060397;23;85424;-75
2022/01/29 16:10:35;;;;;;;69.57;50.22;;;20.20;56.70;;;;;;6062171;23;85602;-76
2022/01/29 16:13:01;;;;;;;69.22;50.33;;;20.10;56.60;;;;;;6056084;23;86093;-77
2022/01/29 16:15:29;;;;;;;67.68;50.05;;;20.10;56.70;;;;;;6050378;23;87503;-75
2022/01/29 16:17:55;;;;;;;71.38;50.47;;;20.10;56.80;;;;;;6050767;23;86605;-75
2022/01/29 16:20:22;;;;;;;70.72;50.22;;;20.10;56.80;;;;;;6056419;23;85363;-78
2022/01/29 16:22:47;;;;;;;72.63;50.00;;;20.00;56.90;;;;;;6058673;23;85585;-77
2022/01/29 16:25:25;;;;;;;70.10;50.60;;;20.00;57.00;;;;;;6057164;23;86238;-78
2022/01/29 16:27:50;;;;;;;68.65;50.05;;;20.00;57.20;;;;;;6051382;23;85252;-76
2022/01/29 16:30:16;;;;;;;68.95;49.72;;;19.90;57.60;;;;;;6052466;23;85656;-77
2022/01/29 16:32:42;;;;;;;70.63;49.70;;;19.90;57.00;;;;;;6054052;23;85274;-77
2022/01/29 16:35:09;;;;;;;70.65;49.88;;;19.90;57.00;;;;;;6052952;23;85727;-77
2022/01/29 16:37:35;;;;;;;68.68;49.42;;;19.90;56.70;;;;;;6047945;23;88352;-76
2022/01/29 16:40:01;;;;;;;70.35;50.00;;;19.90;56.80;;;;;;6046776;23;85463;-77
2022/01/29 16:42:27;;;;;;;68.90;49.70;;;19.90;56.60;;;;;;6046679;23;87927;-77
2022/01/29 16:44:53;;;;;;;69.20;50.10;;;19.80;56.40;;;;;;6047483;23;87436;-76
2022/01/29 16:47:19;;;;;;;67.03;50.47;;;19.80;56.30;;;;;;6052753;23;85571;-76
2022/01/29 16:49:44;;;;;;;67.82;50.53;;;19.80;56.30;;;;;;6051615;23;85419;-77
2022/01/29 16:52:10;;;;;;;68.03;50.00;;;19.80;56.10;;;;;;6050605;23;85425;-77
2022/01/29 16:54:36;;;;;;;66.88;49.63;;;19.80;56.00;;;;;;6046068;23;87699;-76
2022/01/29 16:57:03;;;;;;;69.28;49.85;;;19.80;56.00;;;;;;5970769;23;92713;-77
2022/01/29 16:59:29;;;;;;;58.77;40.57;;;19.80;56.00;;;;;;321670;23;10107124;-77
2022/01/29 17:01:54;;;;;;;66.47;50.00;;;19.80;55.70;;;;;;6055969;23;84886;-76
2022/01/29 17:04:20;;;;;;;70.47;50.53;;;19.80;55.60;;;;;;6058994;23;85565;-77
2022/01/29 17:06:47;;;;;;;69.88;50.00;;;19.90;55.70;;;;;;6058419;23;85225;-77
2022/01/29 17:09:14;;;;;;;69.68;50.38;;;19.90;55.90;;;;;;6060200;23;84983;-77
2022/01/29 17:11:41;;;;;;;68.53;50.55;;;19.90;55.90;;;;;;6066493;23;85189;-77
2022/01/29 17:14:10;;;;;;;74.43;50.75;;;20.00;55.70;;;;;;6054206;23;85506;-77
2022/01/29 17:16:38;;;;;;;69.25;50.28;;;20.00;55.80;;;;;;6041811;23;86109;-77
2022/01/29 17:19:04;;;;;;;69.40;49.97;;;20.00;55.70;;;;;;6041232;23;85527;-77
2022/01/29 17:21:30;;;;;;;70.47;50.28;;;20.10;55.60;;;;;;6043874;23;85587;-77
2022/01/29 17:23:56;;;;;;;67.97;50.33;;;20.10;55.60;;;;;;6043299;23;87576;-77
2022/01/29 17:26:27;;;;;;;66.47;50.05;;;20.10;55.50;;;;;;6042471;23;85345;-77
2022/01/29 17:28:53;;;;;;;;;;;20.20;55.50;;;;;;6038246;23;85514;-76
2022/01/29 17:31:23;;;;;;;67.82;50.25;;;20.20;55.20;;;;;;6033681;23;84777;-76
2022/01/29 17:33:56;;;;;;;69.87;49.97;;;20.20;55.20;;;;;;6030910;23;86627;-77
2022/01/29 17:36:26;;;;;;;69.72;49.72;;;20.20;55.00;;;;;;6027014;23;85944;-77
2022/01/29 17:38:57;;;;;;;69.07;50.00;;;20.20;55.10;;;;;;6032907;23;85431;-77
2022/01/29 17:41:33;;;;;;;65.97;50.10;;;20.20;55.10;;;;;;6034405;23;84927;-77
2022/01/29 17:43:59;;;;;;;67.32;49.63;;;20.20;55.20;;;;;;6025745;23;87059;-76
2022/01/29 17:46:25;;;;;;;64.05;49.75;;;20.10;55.10;;;;;;6028777;23;85233;-74
2022/01/29 17:48:56;;;;;;;66.75;50.05;;;20.10;55.40;;;;;;6025704;23;86849;-76
2022/01/29 17:51:24;;;;;;;75.60;53.55;;;20.10;55.80;;;;;;6025562;23;85015;-75
2022/01/29 17:53:50;;;;;;;76.50;53.10;;;20.10;57.10;;;;;;6032518;23;88265;-75
2022/01/29 17:56:16;;;;;;;72.40;51.83;;;20.10;57.40;;;;;;6026862;23;87038;-76
2022/01/29 17:58:44;;;;;;;78.57;51.92;;;20.10;58.30;;;;;;6026561;23;84925;-77
2022/01/29 18:01:11;;;;;;;74.25;51.70;;;20.10;59.90;;;;;;6026743;23;85635;-76
2022/01/29 18:03:37;;;;;;;76.55;51.40;;;20.10;60.80;;;;;;6038779;23;85063;-76
2022/01/29 18:06:03;;;;;;;78.68;53.78;;;20.10;60.50;;;;;;6055988;23;85778;-77
2022/01/29 18:08:40;;;;;;;71.50;52.25;;;20.00;61.80;;;;;;6032483;23;85210;-78
2022/01/29 18:11:11;;;;;;;73.07;52.17;;;19.90;61.70;;;;;;6026047;23;85407;-77
2022/01/29 18:13:41;;;;;;;71.95;51.83;;;19.90;61.80;;;;;;6028515;23;88031;-76
2022/01/29 18:16:07;;;;;;;77.13;52.50;;;19.90;61.90;;;;;;6062761;23;85334;-77
2022/01/29 18:18:33;;;;;;;80.32;52.20;;;19.80;61.80;;;;;;6076627;23;86774;-77
2022/01/29 18:21:04;;;;;;;72.07;51.28;;;19.70;61.40;;;;;;6095350;23;85239;-78
2022/01/29 18:23:30;;;;;;;70.75;51.03;;;19.70;60.70;;;;;;6087573;22;84885;-77
2022/01/29 18:26:15;;;;;;;72.97;50.88;;;19.60;60.20;;;;;;6066514;23;85324;-77
2022/01/29 18:28:43;;;;;;;74.50;51.10;;;19.60;60.30;;;;;;6057892;23;85629;-77
2022/01/29 18:31:17;;;;;;;74.97;50.72;;;19.50;60.00;;;;;;6058837;23;85331;-79
2022/01/29 18:33:49;;;;;;;68.97;50.47;;;19.50;60.40;;;;;;6053063;23;87615;-77
2022/01/29 18:36:17;;;;;;;;;;;19.50;60.40;;;;;;6056296;23;86071;-75
2022/01/29 18:38:46;;;;;;;73.00;50.65;;;19.50;60.00;;;;;;6061500;23;85608;-77
2022/01/29 18:41:23;;;;;;;77.00;50.38;;;19.40;59.80;;;;;;6060732;23;84917;-76
2022/01/29 18:47:00;;;;;;;73.65;50.15;;;19.30;59.20;;;;;;6055605;23;86044;-78
2022/01/29 18:49:26;;;;;;;73.35;49.78;;;19.30;59.30;;;;;;6056100;23;85315;-75
2022/01/29 18:51:54;;;;;;;75.68;50.40;;;19.30;59.30;;;;;;6034602;23;85726;-77
2022/01/29 18:54:47;;;;;;;68.07;49.72;;;19.20;59.00;;;;;;6057169;23;85115;-76
2022/01/29 18:57:15;;;;;;;71.80;50.03;;;19.20;59.40;;;;;;6060541;23;85881;-76
2022/01/29 18:59:41;;;;;;;69.05;49.90;;;19.20;59.20;;;;;;6056570;23;85435;-75
2022/01/29 19:02:08;;;;;;;71.88;49.83;;;19.20;59.00;;;;;;6053288;23;85510;-76
2022/01/29 19:04:48;;;;;;;69.80;50.00;;;19.20;59.20;;;;;;6056921;23;86125;-77
2022/01/29 19:07:16;;;;;;;74.32;50.28;;;19.20;59.60;;;;;;6060219;23;85700;-77
2022/01/29 19:09:44;;;;;;;82.97;50.40;;;19.20;59.30;;;;;;6058797;23;84790;-77
2022/01/29 19:12:10;;;;;;;78.80;50.38;;;19.10;59.10;;;;;;6064287;23;84868;-76
2022/01/29 19:14:36;;;;;;;80.45;49.80;;;19.10;59.30;;;;;;6059864;23;85291;-76
2022/01/29 19:17:04;;;;;;;70.07;49.67;;;19.10;59.00;;;;;;6066427;23;87398;-76
2022/01/29 19:19:32;;;;;;;72.45;50.08;;;19.10;58.80;;;;;;6066491;23;85666;-77
2022/01/29 19:21:58;;;;;;;75.63;49.90;;;19.10;59.00;;;;;;6067623;23;85142;-77
2022/01/29 19:24:30;;;;;;;71.00;50.20;;;19.10;59.00;;;;;;6065609;23;85650;-76
2022/01/29 19:26:55;;;;;;;69.35;49.75;;;19.10;58.80;;;;;;6064719;23;86161;-76
2022/01/29 19:29:21;;;;;;;71.35;50.47;;;19.20;58.40;;;;;;6060811;23;85516;-77
2022/01/29 19:31:47;;;;;;;75.72;50.20;;;19.30;58.70;;;;;;6062142;23;84860;-76
2022/01/29 19:34:13;;;;;;;70.63;49.95;;;19.40;58.60;;;;;;6060428;23;85112;-76
2022/01/29 19:36:38;;;;;;;71.45;50.22;;;19.50;58.40;;;;;;6061699;23;85241;-76
2022/01/29 19:39:05;;;;;;;68.80;49.92;;;19.50;58.10;;;;;;6063758;23;85769;-76
2022/01/29 19:41:30;;;;;;;74.45;49.90;;;19.60;57.80;;;;;;6067685;23;85336;-76